Time;durP1;ratioP1;P1;durP2;ratioP2;P2;SDS_P1;SDS_P2;PMS_P1;PMS_P2;Temp;Humidity;BMP_temperature;BMP_pressure;BME280_temperature;BME280_humidity;BME280_pressure;Samples;Min_cycle;Max_cycle;Signal;HPM_P1;HPM_P2
2022/08/28 00:00:19;;;;;;;30.00;17.30;;;19.20;99.90;;;;;;9543627;31;20046;-80
2022/08/28 00:05:23;;;;;;;27.63;18.35;;;19.20;99.90;;;;;;9542487;31;20042;-80
2022/08/28 00:10:25;;;;;;;35.92;21.17;;;19.20;99.90;;;;;;9534948;31;20055;-82
2022/08/28 00:15:29;;;;;;;30.08;18.42;;;19.10;99.90;;;;;;9536081;31;20047;-79
2022/08/28 00:20:31;;;;;;;36.10;19.50;;;19.10;99.90;;;;;;9534391;31;20032;-80
2022/08/28 00:25:33;;;;;;;29.65;16.77;;;19.10;99.90;;;;;;9531892;31;20091;-80
2022/08/28 00:30:37;;;;;;;36.63;18.77;;;19.10;99.90;;;;;;9517530;31;20445;-81
2022/08/28 00:35:39;;;;;;;30.63;18.35;;;19.10;99.90;;;;;;9514624;31;20508;-81
2022/08/28 00:40:43;;;;;;;28.55;17.35;;;19.00;99.90;;;;;;9516000;31;20032;-81
2022/08/28 00:45:43;;;;;;;24.05;15.48;;;19.00;99.90;;;;;;9533700;31;20048;-80
2022/08/28 00:56:07;;;;;;;26.67;17.98;;;18.90;99.90;;;;;;9552665;31;20510;-81
2022/08/28 01:01:08;;;;;;;22.10;15.43;;;18.90;99.90;;;;;;9558094;31;20119;-81
2022/08/28 01:06:12;;;;;;;21.63;14.02;;;18.90;99.90;;;;;;9560558;31;20051;-80
2022/08/28 01:11:15;;;;;;;22.55;14.65;;;18.80;99.90;;;;;;9551166;31;20116;-79
2022/08/28 01:16:18;;;;;;;21.23;14.85;;;18.80;99.90;;;;;;9544856;31;20078;-81
2022/08/28 01:21:28;;;;;;;20.52;15.10;;;18.80;99.90;;;;;;9551641;31;20054;-80
2022/08/28 01:26:29;;;;;;;20.05;13.70;;;18.90;99.90;;;;;;9563130;31;20075;-79
2022/08/28 01:31:30;;;;;;;20.23;13.50;;;18.90;99.90;;;;;;9562998;31;20111;-81
2022/08/28 01:36:32;;;;;;;19.02;13.63;;;18.90;99.90;;;;;;9547861;31;20047;-80
2022/08/28 01:41:34;;;;;;;20.05;13.35;;;18.90;99.90;;;;;;9557192;30;20528;-80
2022/08/28 01:46:34;;;;;;;20.55;14.48;;;18.80;99.90;;;;;;9554060;31;20106;-79
2022/08/28 01:51:35;;;;;;;20.75;14.15;;;18.80;99.90;;;;;;9570721;31;20088;-79
2022/08/28 01:56:37;;;;;;;22.60;15.73;;;18.80;99.90;;;;;;9557311;30;20032;-79
2022/08/28 02:01:38;;;;;;;33.42;17.33;;;18.70;99.90;;;;;;9556737;31;20398;-79
2022/08/28 02:06:40;;;;;;;24.15;16.55;;;18.60;99.90;;;;;;9561450;31;20102;-79
2022/08/28 02:11:42;;;;;;;25.38;17.70;;;18.60;99.90;;;;;;9561268;31;20111;-81
2022/08/28 02:16:43;;;;;;;23.88;17.38;;;18.50;99.90;;;;;;9555191;31;20039;-79
2022/08/28 02:21:43;;;;;;;26.15;17.27;;;18.50;99.90;;;;;;9571797;31;20133;-80
2022/08/28 02:26:44;;;;;;;19.80;14.15;;;18.50;99.90;;;;;;9562149;31;20476;-79
2022/08/28 02:31:44;;;;;;;19.23;15.57;;;18.70;99.90;;;;;;9558676;31;20055;-81
2022/08/28 02:36:45;;;;;;;21.13;15.25;;;18.70;99.90;;;;;;9558965;31;20134;-80
2022/08/28 02:41:45;;;;;;;19.38;13.68;;;18.70;99.90;;;;;;9558920;30;20051;-79
2022/08/28 02:46:46;;;;;;;23.45;15.05;;;18.70;99.90;;;;;;9562356;31;20428;-80
2022/08/28 02:51:46;;;;;;;21.05;14.07;;;18.80;99.90;;;;;;9572947;31;20569;-80
2022/08/28 02:56:47;;;;;;;22.52;15.13;;;18.80;99.90;;;;;;9556287;31;20059;-79
2022/08/28 03:01:48;;;;;;;23.33;16.00;;;18.80;99.90;;;;;;9548167;31;20046;-78
2022/08/28 03:06:49;;;;;;;30.38;19.05;;;18.60;99.90;;;;;;9545648;31;20119;-80
2022/08/28 03:11:52;;;;;;;28.00;18.20;;;18.60;99.90;;;;;;9568238;30;20043;-79
2022/08/28 03:16:52;;;;;;;28.83;18.75;;;18.50;99.90;;;;;;9557548;30;20647;-81
2022/08/28 03:21:53;;;;;;;29.80;18.75;;;18.30;99.90;;;;;;9573829;31;20060;-81
2022/08/28 03:26:54;;;;;;;24.88;17.08;;;18.30;99.90;;;;;;9557071;31;20142;-79
2022/08/28 03:31:55;;;;;;;25.02;17.75;;;18.20;99.90;;;;;;9558269;31;20897;-80
2022/08/28 03:36:55;;;;;;;22.95;16.25;;;18.10;99.90;;;;;;9561861;31;20043;-79
2022/08/28 03:41:56;;;;;;;28.42;16.90;;;18.10;99.90;;;;;;9558588;31;20494;-80
2022/08/28 03:46:56;;;;;;;27.98;19.00;;;18.10;99.90;;;;;;9561352;31;20054;-79
2022/08/28 03:51:58;;;;;;;32.75;19.50;;;18.10;99.90;;;;;;9561283;31;20537;-80
2022/08/28 03:56:59;;;;;;;21.38;16.45;;;18.30;99.90;;;;;;9557085;31;20439;-79
2022/08/28 04:01:59;;;;;;;21.77;16.13;;;18.30;99.90;;;;;;9557878;30;20074;-80
2022/08/28 04:07:00;;;;;;;28.20;17.55;;;18.40;99.90;;;;;;9550857;30;20043;-79
2022/08/28 04:12:00;;;;;;;23.73;16.50;;;18.40;99.90;;;;;;9554793;31;20048;-81
2022/08/28 04:17:01;;;;;;;24.27;16.15;;;18.50;99.90;;;;;;9554503;30;20456;-83
2022/08/28 04:22:02;;;;;;;27.65;18.63;;;18.60;99.90;;;;;;9568908;31;20454;-81
2022/08/28 04:27:03;;;;;;;29.40;19.30;;;18.60;99.90;;;;;;9554059;31;20036;-81
2022/08/28 04:32:03;;;;;;;26.83;17.95;;;18.70;99.90;;;;;;9559350;31;20520;-79
2022/08/28 04:37:05;;;;;;;30.10;19.90;;;18.70;99.90;;;;;;9565568;31;20046;-81
2022/08/28 04:42:06;;;;;;;45.50;26.83;;;18.70;99.90;;;;;;9557949;31;20445;-80
2022/08/28 04:47:06;;;;;;;53.45;29.27;;;18.60;99.90;;;;;;9558166;30;20047;-82
2022/08/28 04:52:07;;;;;;;43.58;27.00;;;18.70;99.90;;;;;;9535427;31;20063;-81
2022/08/28 04:57:07;;;;;;;33.55;20.83;;;18.80;99.90;;;;;;9545282;31;20051;-79
2022/08/28 05:02:08;;;;;;;27.98;18.60;;;18.90;99.90;;;;;;9560573;31;20043;-80
2022/08/28 05:07:08;;;;;;;22.83;16.25;;;19.00;99.90;;;;;;9565657;31;20043;-82
2022/08/28 05:12:15;;;;;;;22.30;14.75;;;19.20;99.90;;;;;;9555330;31;20505;-82
2022/08/28 05:17:16;;;;;;;17.50;14.73;;;19.30;99.90;;;;;;9557287;31;20050;-84
2022/08/28 05:22:17;;;;;;;21.92;14.98;;;19.40;99.90;;;;;;9549654;31;20068;-83
2022/08/28 05:27:17;;;;;;;20.48;14.15;;;19.50;99.90;;;;;;9566925;31;20047;-83
2022/08/28 05:32:19;;;;;;;20.17;14.50;;;19.60;99.90;;;;;;9563503;31;20047;-84
2022/08/28 05:37:20;;;;;;;22.17;15.60;;;19.70;99.90;;;;;;9550647;31;20043;-81
2022/08/28 05:42:20;;;;;;;18.52;13.55;;;19.80;99.90;;;;;;9565476;31;20039;-83
2022/08/28 05:47:21;;;;;;;21.27;13.85;;;19.90;99.90;;;;;;9551315;31;20043;-82
2022/08/28 05:52:21;;;;;;;20.27;15.52;;;19.90;99.90;;;;;;9545864;31;20062;-83
2022/08/28 05:57:22;;;;;;;19.98;14.35;;;20.10;99.90;;;;;;9558957;30;20720;-82
2022/08/28 06:02:22;;;;;;;21.05;15.40;;;20.20;99.90;;;;;;9555773;31;20175;-82
2022/08/28 06:07:23;;;;;;;21.80;13.88;;;20.30;99.90;;;;;;9560152;31;20055;-84
2022/08/28 06:12:24;;;;;;;20.33;14.85;;;20.40;99.90;;;;;;9555404;31;20063;-84
2022/08/28 06:17:24;;;;;;;18.38;13.60;;;20.50;99.90;;;;;;9552009;31;20094;-84
2022/08/28 06:22:25;;;;;;;18.85;13.73;;;20.60;99.90;;;;;;9555044;30;20071;-83
2022/08/28 06:27:25;;;;;;;18.55;14.07;;;20.60;99.90;;;;;;9555537;31;20092;-82
2022/08/28 06:32:26;;;;;;;22.98;14.82;;;20.70;99.90;;;;;;9556540;31;20052;-84
2022/08/28 06:37:27;;;;;;;21.13;16.05;;;20.80;99.90;;;;;;9561530;31;20146;-85
2022/08/28 06:42:27;;;;;;;21.52;17.45;;;20.80;99.90;;;;;;9546735;31;20570;-82
2022/08/28 06:47:28;;;;;;;28.33;20.02;;;20.90;99.90;;;;;;9554808;31;20066;-83
2022/08/28 06:52:29;;;;;;;30.58;21.42;;;21.30;99.90;;;;;;9560568;31;20471;-85
2022/08/28 06:57:30;;;;;;;25.88;19.50;;;21.60;99.90;;;;;;9541398;31;20090;-86
2022/08/28 07:02:31;;;;;;;25.95;18.90;;;21.90;99.90;;;;;;9540606;31;20459;-86
2022/08/28 07:07:32;;;;;;;29.38;20.65;;;22.20;99.90;;;;;;9544377;31;20036;-86
2022/08/28 07:12:33;;;;;;;24.95;20.02;;;22.50;99.90;;;;;;9528249;31;20074;-85
2022/08/28 07:17:33;;;;;;;31.33;21.35;;;22.70;99.90;;;;;;9541092;31;20043;-86
2022/08/28 07:22:34;;;;;;;21.52;17.60;;;23.00;99.90;;;;;;9538038;31;20062;-85
2022/08/28 07:27:35;;;;;;;26.92;19.27;;;23.30;99.90;;;;;;9551392;31;20035;-86
2022/08/28 07:32:35;;;;;;;25.52;18.15;;;23.50;99.90;;;;;;9550198;31;20052;-83
2022/08/28 07:37:36;;;;;;;27.88;18.40;;;23.70;99.90;;;;;;9559307;31;20039;-83
2022/08/28 07:47:57;;;;;;;24.52;18.30;;;23.90;99.90;;;;;;9556347;31;20040;-83
2022/08/28 07:52:57;;;;;;;24.73;18.33;;;23.90;99.90;;;;;;9557677;31;20113;-83
2022/08/28 07:57:58;;;;;;;24.98;18.45;;;24.10;99.90;;;;;;9562657;31;20050;-83
2022/08/28 08:02:59;;;;;;;23.33;17.80;;;24.20;99.90;;;;;;9554989;31;20035;-83
2022/08/28 08:08:00;;;;;;;28.88;18.40;;;24.40;99.90;;;;;;9535544;31;20466;-84
2022/08/28 08:13:00;;;;;;;25.65;17.92;;;24.60;99.90;;;;;;9543936;31;20044;-85
2022/08/28 08:18:01;;;;;;;21.02;16.13;;;24.70;99.90;;;;;;9545638;30;20667;-83
2022/08/28 08:23:01;;;;;;;21.63;15.95;;;24.80;99.90;;;;;;9557011;31;20153;-84
2022/08/28 08:28:02;;;;;;;23.02;16.77;;;25.10;99.90;;;;;;9559799;31;20116;-84
2022/08/28 08:33:05;;;;;;;33.10;21.00;;;25.20;99.90;;;;;;9549110;31;20060;-86
2022/08/28 08:38:06;;;;;;;24.00;19.10;;;25.50;99.90;;;;;;9545141;31;20075;-84
2022/08/28 08:43:07;;;;;;;26.02;17.23;;;25.70;99.90;;;;;;9542637;31;20028;-85
2022/08/28 08:48:28;;;;;;;21.63;17.02;;;25.90;99.90;;;;;;9522683;31;20566;-85
2022/08/28 08:54:05;;;;;;;23.38;16.48;;;26.40;99.90;;;;;;9530826;31;20048;-85
2022/08/28 08:59:10;;;;;;;26.50;19.98;;;26.90;99.90;;;;;;9539859;31;20043;-84
2022/08/28 09:04:38;;;;;;;22.95;17.23;;;26.90;99.90;;;;;;9533264;31;20548;-84
2022/08/28 09:09:53;;;;;;;17.58;14.02;;;26.50;99.00;;;;;;9549308;31;20042;-86
2022/08/28 09:15:04;;;;;;;20.85;14.80;;;26.00;99.90;;;;;;9544354;31;20413;-85
2022/08/28 09:20:09;;;;;;;18.38;14.02;;;26.00;99.90;;;;;;9537880;31;20039;-84
2022/08/28 09:25:32;;;;;;;22.55;15.52;;;26.30;99.90;;;;;;9524280;31;20075;-85
2022/08/28 09:30:32;;;;;;;17.95;12.13;;;26.80;99.90;;;;;;9538707;31;20059;-85
2022/08/28 09:35:38;;;;;;;13.90;10.60;;;27.20;98.40;;;;;;9551927;31;20470;-87
2022/08/28 09:45:59;;;;;;;14.55;10.65;;;27.30;95.80;;;;;;9545495;31;20055;-85
2022/08/28 09:51:08;;;;;;;16.65;12.85;;;27.40;95.20;;;;;;9535584;31;20055;-85
2022/08/28 09:56:17;;;;;;;16.88;11.30;;;27.10;94.70;;;;;;9536042;31;20132;-85
2022/08/28 10:01:26;;;;;;;13.60;10.90;;;26.80;94.90;;;;;;9524477;31;20040;-84
2022/08/28 10:06:34;;;;;;;17.27;13.20;;;26.90;95.10;;;;;;9548047;31;20078;-85
2022/08/28 10:11:49;;;;;;;15.65;13.10;;;27.30;95.60;;;;;;9543734;31;20052;-85
2022/08/28 10:17:04;;;;;;;18.13;12.95;;;27.20;95.30;;;;;;9542654;31;20023;-84
2022/08/28 10:22:49;;;;;;;17.40;14.15;;;27.10;95.60;;;;;;9543597;31;20071;-86
2022/08/28 10:27:58;;;;;;;;;;;27.10;95.80;;;;;;9564735;31;20182;-84
2022/08/28 10:33:38;;;;;;;18.90;13.82;;;26.80;95.00;;;;;;9545103;31;19929;-84
2022/08/28 10:39:01;;;;;;;16.27;12.55;;;26.50;95.40;;;;;;9552345;31;20046;-84
2022/08/28 10:44:04;;;;;;;18.73;12.40;;;26.40;96.10;;;;;;9551035;31;20043;-85
2022/08/28 10:49:31;;;;;;;15.35;11.88;;;26.50;96.90;;;;;;9539325;31;20044;-85
2022/08/28 10:54:44;;;;;;;17.95;13.65;;;26.80;96.80;;;;;;9526219;31;20056;-82
2022/08/28 10:59:50;;;;;;;20.08;13.88;;;27.40;96.10;;;;;;9535581;31;20039;-86
2022/08/28 11:04:52;;;;;;;18.15;13.70;;;28.10;95.00;;;;;;9543292;31;20028;-85
2022/08/28 11:09:53;;;;;;;18.38;13.77;;;27.90;93.20;;;;;;9541609;31;20054;-84
2022/08/28 11:14:53;;;;;;;19.52;11.52;;;27.60;94.00;;;;;;9543866;31;20051;-86
2022/08/28 11:20:15;;;;;;;19.20;15.05;;;27.50;93.40;;;;;;9518099;31;20564;-85
2022/08/28 11:25:42;;;;;;;20.75;14.85;;;27.60;95.00;;;;;;9548097;31;20048;-86
2022/08/28 11:30:45;;;;;;;20.90;15.60;;;27.80;93.50;;;;;;9547616;31;20044;-87
2022/08/28 11:35:49;;;;;;;18.67;14.80;;;27.70;94.40;;;;;;9547936;31;20036;-87
2022/08/28 11:40:54;;;;;;;17.83;12.83;;;27.60;93.90;;;;;;9540010;31;20561;-88
2022/08/28 11:45:55;;;;;;;16.20;13.05;;;27.90;93.00;;;;;;9562260;30;20118;-87
2022/08/28 11:51:03;;;;;;;17.17;13.35;;;28.10;92.10;;;;;;9552465;31;20043;-87
2022/08/28 11:56:30;;;;;;;16.83;12.45;;;27.80;90.80;;;;;;9553178;31;20054;-87
2022/08/28 12:01:34;;;;;;;17.27;12.50;;;27.80;92.60;;;;;;9522219;31;20134;-86
2022/08/28 12:06:43;;;;;;;17.27;11.27;;;28.00;91.00;;;;;;9542024;31;20051;-87
2022/08/28 12:11:44;;;;;;;17.63;14.32;;;28.20;90.60;;;;;;9553331;31;20063;-86
2022/08/28 12:17:00;;;;;;;20.75;13.32;;;28.60;91.70;;;;;;9564506;30;20051;-87
2022/08/28 12:22:08;;;;;;;15.23;12.05;;;28.70;90.30;;;;;;9549351;31;20087;-86
2022/08/28 12:27:09;;;;;;;14.98;9.77;;;28.90;90.80;;;;;;9537091;31;20130;-86
2022/08/28 12:32:53;;;;;;;17.30;13.40;;;29.00;87.80;;;;;;9536640;31;20138;-87
2022/08/28 12:37:55;;;;;;;15.10;11.23;;;29.00;88.70;;;;;;9543500;31;20127;-86
2022/08/28 12:43:04;;;;;;;13.95;10.18;;;28.70;88.20;;;;;;9547520;31;20044;-88
2022/08/28 12:48:22;;;;;;;13.95;10.50;;;28.60;88.20;;;;;;9542638;31;20099;-87
2022/08/28 12:53:23;;;;;;;16.50;11.00;;;28.50;86.80;;;;;;9535266;31;20811;-87
2022/08/28 12:58:31;;;;;;;12.65;10.55;;;28.30;88.00;;;;;;9551575;30;20039;-87
2022/08/28 13:03:32;;;;;;;14.30;11.55;;;28.20;88.70;;;;;;9549155;31;20218;-88
2022/08/28 13:08:34;;;;;;;17.00;12.43;;;27.90;89.70;;;;;;9538071;31;20036;-86
2022/08/28 13:13:45;;;;;;;16.55;12.82;;;27.90;90.00;;;;;;9532783;31;20090;-87
2022/08/28 13:18:51;;;;;;;18.58;12.80;;;27.60;89.90;;;;;;9550370;30;20130;-86
2022/08/28 13:23:58;;;;;;;19.40;12.73;;;27.10;90.10;;;;;;9537718;31;20059;-84
2022/08/28 13:29:02;;;;;;;15.93;12.25;;;26.70;90.90;;;;;;9547575;31;20027;-86
2022/08/28 13:34:08;;;;;;;16.25;12.02;;;26.30;91.20;;;;;;9545209;31;20051;-86
2022/08/28 13:39:08;;;;;;;17.30;12.40;;;26.00;91.40;;;;;;9547354;31;20032;-85
2022/08/28 13:44:23;;;;;;;14.82;11.30;;;25.60;92.60;;;;;;9542460;31;20489;-87
2022/08/28 13:49:26;;;;;;;16.48;12.55;;;25.30;93.10;;;;;;9548448;31;20080;-86
2022/08/28 13:54:27;;;;;;;15.40;11.38;;;25.00;93.80;;;;;;9550634;31;20060;-85
2022/08/28 13:59:29;;;;;;;17.17;10.77;;;24.80;94.50;;;;;;9552429;31;20052;-85
2022/08/28 14:04:30;;;;;;;14.90;10.18;;;24.60;95.80;;;;;;9539731;31;20040;-86
2022/08/28 14:09:31;;;;;;;11.20;8.65;;;24.20;97.00;;;;;;9561331;31;20481;-84
2022/08/28 14:14:31;;;;;;;6.88;4.22;;;23.70;98.60;;;;;;9541145;31;20052;-86
2022/08/28 14:19:32;;;;;;;9.60;6.13;;;23.20;98.20;;;;;;9549527;31;20140;-84
2022/08/28 14:24:33;;;;;;;11.07;7.50;;;22.60;99.90;;;;;;9550623;31;20064;-84
2022/08/28 14:29:35;;;;;;;15.50;11.32;;;22.40;99.90;;;;;;9528582;31;20044;-84
2022/08/28 14:34:37;;;;;;;14.32;9.02;;;22.40;99.90;;;;;;9547215;31;20052;-84
2022/08/28 14:39:37;;;;;;;13.75;9.68;;;22.50;99.90;;;;;;9537398;31;20046;-85
2022/08/28 14:44:38;;;;;;;16.65;11.43;;;22.40;99.90;;;;;;9547370;30;20561;-84
2022/08/28 14:49:39;;;;;;;17.42;9.25;;;22.10;99.90;;;;;;9539786;31;20035;-84
2022/08/28 14:54:40;;;;;;;14.93;7.72;;;21.20;99.90;;;;;;9545499;31;20060;-84
2022/08/28 14:59:41;;;;;;;18.00;9.27;;;20.00;99.90;;;;;;9544653;31;20044;-83
2022/08/28 15:04:41;;;;;;;12.30;7.32;;;19.00;99.90;;;;;;9554808;31;20107;-81
2022/08/28 15:09:42;;;;;;;13.55;7.43;;;18.60;99.90;;;;;;9550324;31;20613;-81
2022/08/28 15:14:43;;;;;;;19.75;10.07;;;18.20;99.90;;;;;;9547605;31;20055;-81
2022/08/28 15:19:43;;;;;;;22.10;9.43;;;18.20;99.90;;;;;;9558724;30;20054;-80
2022/08/28 15:31:34;;;;;;;16.83;7.70;;;18.20;99.90;;;;;;9533316;31;20067;-79
2022/08/28 15:36:36;;;;;;;17.88;8.85;;;18.30;99.90;;;;;;9538983;31;20031;-80
2022/08/28 15:41:37;;;;;;;32.75;10.90;;;18.40;99.90;;;;;;9547352;31;20366;-81
2022/08/28 15:46:38;;;;;;;34.83;11.63;;;18.40;99.90;;;;;;9536255;31;20040;-80
2022/08/28 15:51:57;;;;;;;29.15;10.27;;;18.70;99.90;;;;;;9527169;31;20058;-82
2022/08/28 15:56:58;;;;;;;18.55;8.55;;;18.80;99.90;;;;;;9529794;31;20050;-80
2022/08/28 16:01:58;;;;;;;21.83;9.45;;;18.90;99.90;;;;;;9542884;31;20054;-81
2022/08/28 16:06:59;;;;;;;24.48;9.60;;;18.90;99.90;;;;;;9540088;31;20487;-81
2022/08/28 16:12:00;;;;;;;24.73;9.88;;;18.80;99.90;;;;;;9547013;31;20051;-83
2022/08/28 16:17:01;;;;;;;24.88;10.05;;;18.80;99.90;;;;;;9537426;31;20478;-80
2022/08/28 16:22:02;;;;;;;26.52;10.20;;;18.80;99.90;;;;;;9542594;31;20487;-82
2022/08/28 16:27:03;;;;;;;27.50;10.23;;;18.80;99.90;;;;;;9539889;31;20123;-80
2022/08/28 16:32:04;;;;;;;46.20;14.23;;;18.90;99.90;;;;;;9543792;31;20431;-80
2022/08/28 16:37:05;;;;;;;157.05;29.83;;;18.90;99.90;;;;;;9542316;31;20054;-79
2022/08/28 16:42:05;;;;;;;56.97;17.67;;;19.00;99.90;;;;;;9548239;31;20126;-80
2022/08/28 16:47:07;;;;;;;43.08;15.90;;;19.10;99.90;;;;;;9544105;31;20028;-81
2022/08/28 16:52:07;;;;;;;44.15;16.73;;;19.10;99.90;;;;;;9541832;31;20135;-82
2022/08/28 16:57:08;;;;;;;43.55;16.60;;;19.00;99.90;;;;;;9541456;31;20550;-79
2022/08/28 17:02:08;;;;;;;57.17;19.40;;;18.90;99.90;;;;;;9550387;31;20537;-80
2022/08/28 17:07:09;;;;;;;41.13;17.95;;;18.80;99.90;;;;;;9547513;31;20437;-80
2022/08/28 17:12:10;;;;;;;52.28;19.73;;;18.60;99.90;;;;;;9539932;31;20103;-80
2022/08/28 17:17:10;;;;;;;38.83;15.05;;;18.70;99.90;;;;;;9540833;31;20036;-81
2022/08/28 17:22:30;;;;;;;29.77;12.85;;;18.70;99.90;;;;;;9535083;31;20147;-81
2022/08/28 17:27:31;;;;;;;29.27;10.40;;;18.70;99.90;;;;;;9541434;31;20040;-80
2022/08/28 17:32:31;;;;;;;26.42;9.82;;;18.70;99.90;;;;;;9550139;31;20047;-80
2022/08/28 17:37:32;;;;;;;25.58;8.18;;;18.80;99.90;;;;;;9554702;31;20046;-80
2022/08/28 17:42:33;;;;;;;16.13;7.38;;;18.80;99.90;;;;;;9556404;30;20043;-79
2022/08/28 17:47:34;;;;;;;42.90;13.18;;;18.70;99.90;;;;;;9543939;31;20116;-80
2022/08/28 17:52:34;;;;;;;38.85;10.95;;;18.80;99.90;;;;;;9548841;31;20052;-79
2022/08/28 17:57:35;;;;;;;23.08;10.25;;;18.70;99.90;;;;;;9548864;31;20054;-81
2022/08/28 18:02:38;;;;;;;108.47;23.65;;;18.80;99.90;;;;;;9545961;31;20042;-81
2022/08/28 18:07:38;;;;;;;88.78;25.98;;;18.80;99.90;;;;;;9551185;31;20464;-81
2022/08/28 18:12:40;;;;;;;98.05;20.17;;;18.80;99.90;;;;;;9551334;30;20048;-80
2022/08/28 18:17:41;;;;;;;98.57;21.75;;;18.90;99.90;;;;;;9547131;31;20076;-80
2022/08/28 18:22:42;;;;;;;71.00;19.95;;;18.90;99.90;;;;;;9549551;31;20130;-81
2022/08/28 18:27:44;;;;;;;282.33;46.42;;;18.90;99.90;;;;;;9543848;31;20046;-80
2022/08/28 18:32:44;;;;;;;423.35;72.97;;;18.90;99.90;;;;;;9544231;31;20054;-79
2022/08/28 18:37:45;;;;;;;230.60;88.18;;;19.00;99.90;;;;;;9556594;31;20050;-79
2022/08/28 18:42:46;;;;;;;164.90;60.05;;;18.90;99.90;;;;;;9543825;31;20504;-79
2022/08/28 18:47:47;;;;;;;433.85;127.90;;;18.90;99.90;;;;;;9547986;31;20740;-80
2022/08/28 18:52:49;;;;;;;156.52;60.47;;;19.00;99.90;;;;;;9552467;31;20052;-81
2022/08/28 18:57:50;;;;;;;181.95;47.03;;;19.10;99.90;;;;;;9537832;31;20050;-80
2022/08/28 19:02:51;;;;;;;160.00;45.95;;;19.20;99.90;;;;;;9541337;31;20040;-80
2022/08/28 19:07:52;;;;;;;110.38;37.15;;;19.20;99.90;;;;;;9547344;31;20820;-80
2022/08/28 19:12:54;;;;;;;120.30;39.55;;;19.30;99.90;;;;;;9544164;31;20407;-81
2022/08/28 19:17:54;;;;;;;164.90;46.80;;;19.40;99.90;;;;;;9539503;31;20118;-79
2022/08/28 19:22:56;;;;;;;71.95;30.27;;;19.50;99.90;;;;;;9553142;31;20086;-81
2022/08/28 19:28:00;;;;;;;75.43;30.70;;;19.40;99.90;;;;;;9548495;31;20054;-80
2022/08/28 19:33:04;;;;;;;64.80;28.10;;;19.40;99.90;;;;;;9551223;31;20051;-80
2022/08/28 19:38:04;;;;;;;58.05;27.75;;;19.40;99.90;;;;;;9553678;31;20676;-80
2022/08/28 19:43:05;;;;;;;86.28;32.80;;;19.30;99.90;;;;;;9550962;31;20106;-81
2022/08/28 19:48:05;;;;;;;65.50;27.55;;;19.30;99.90;;;;;;9548824;31;20469;-81
2022/08/28 19:53:06;;;;;;;66.88;28.40;;;19.30;99.90;;;;;;9540351;31;20044;-80
2022/08/28 19:58:09;;;;;;;69.88;28.00;;;19.20;99.90;;;;;;9536972;30;20040;-79
2022/08/28 20:03:09;;;;;;;74.00;29.48;;;19.20;99.90;;;;;;9528621;31;20040;-79
2022/08/28 20:08:11;;;;;;;64.10;28.27;;;19.20;99.90;;;;;;9552339;31;20047;-79
2022/08/28 20:13:13;;;;;;;64.07;27.88;;;19.20;99.90;;;;;;9533284;31;20395;-79
2022/08/28 20:18:15;;;;;;;45.53;22.48;;;19.10;99.90;;;;;;9539912;31;20039;-81
2022/08/28 20:23:17;;;;;;;49.58;23.48;;;19.10;99.90;;;;;;9546982;31;20520;-79
2022/08/28 20:28:18;;;;;;;46.75;22.73;;;19.10;99.90;;;;;;9550192;31;20110;-81
2022/08/28 20:33:18;;;;;;;43.72;21.23;;;19.00;99.90;;;;;;9549225;31;20063;-79
2022/08/28 20:38:19;;;;;;;56.83;23.92;;;18.80;99.90;;;;;;9538058;31;20047;-81
2022/08/28 20:43:19;;;;;;;48.17;21.42;;;18.80;99.90;;;;;;9545939;31;20047;-79
2022/08/28 20:48:20;;;;;;;47.58;19.90;;;18.80;99.90;;;;;;9543744;31;20054;-80
2022/08/28 20:53:20;;;;;;;44.95;19.65;;;18.80;99.90;;;;;;9541097;31;20138;-79
2022/08/28 20:58:22;;;;;;;46.45;21.20;;;18.70;99.90;;;;;;9548532;31;20039;-80
2022/08/28 21:03:23;;;;;;;60.22;22.80;;;18.70;99.90;;;;;;9553281;31;20062;-79
2022/08/28 21:08:23;;;;;;;48.33;19.10;;;18.70;99.90;;;;;;9539473;31;20048;-80
2022/08/28 21:13:24;;;;;;;67.95;23.65;;;18.60;99.90;;;;;;9534938;31;20051;-81
2022/08/28 21:18:24;;;;;;;43.53;18.23;;;18.60;99.90;;;;;;9540198;31;20051;-79
2022/08/28 21:23:25;;;;;;;66.40;23.38;;;18.60;99.90;;;;;;9564657;30;20063;-81
2022/08/28 21:28:27;;;;;;;62.33;23.90;;;18.60;99.90;;;;;;9536094;31;20449;-80
2022/08/28 21:33:27;;;;;;;62.15;23.35;;;18.60;99.90;;;;;;9540668;31;20059;-80
2022/08/28 21:38:28;;;;;;;91.60;27.60;;;18.60;99.90;;;;;;9549820;31;20413;-79
2022/08/28 21:43:29;;;;;;;52.33;20.58;;;18.50;99.90;;;;;;9540751;31;20044;-80
2022/08/28 21:48:30;;;;;;;70.30;23.05;;;18.50;99.90;;;;;;9532331;31;20126;-79
2022/08/28 21:53:31;;;;;;;59.78;22.42;;;18.60;99.90;;;;;;9538098;31;20048;-80
2022/08/28 21:58:33;;;;;;;54.28;20.77;;;18.60;99.90;;;;;;9555158;31;20062;-80
2022/08/28 22:03:34;;;;;;;58.47;20.98;;;18.60;99.90;;;;;;9534525;31;20056;-79
2022/08/28 22:08:35;;;;;;;65.13;21.40;;;18.50;99.90;;;;;;9550422;31;20040;-80
2022/08/28 22:13:36;;;;;;;56.90;19.63;;;18.50;99.90;;;;;;9541161;31;20047;-79
2022/08/28 22:18:37;;;;;;;61.58;20.05;;;18.50;99.90;;;;;;9561919;30;20043;-79
2022/08/28 22:23:38;;;;;;;60.85;19.83;;;18.40;99.90;;;;;;9548113;30;20060;-79
2022/08/28 22:28:39;;;;;;;58.40;18.67;;;18.40;99.90;;;;;;9545128;31;20167;-79
2022/08/28 22:33:41;;;;;;;59.90;19.50;;;18.40;99.90;;;;;;9543688;31;20506;-79
2022/08/28 22:38:42;;;;;;;63.85;20.88;;;18.40;99.90;;;;;;9544905;31;20043;-81
2022/08/28 22:43:44;;;;;;;48.42;18.35;;;18.40;99.90;;;;;;9542934;31;20537;-79
2022/08/28 22:48:45;;;;;;;55.63;19.90;;;18.30;99.90;;;;;;9544252;31;20042;-79
2022/08/28 22:53:46;;;;;;;45.15;17.63;;;18.40;99.90;;;;;;9544010;31;20064;-79
2022/08/28 22:58:47;;;;;;;43.25;17.40;;;18.30;99.90;;;;;;9543013;31;20039;-81
2022/08/28 23:03:47;;;;;;;41.25;17.02;;;18.30;99.90;;;;;;9543737;31;20047;-79
2022/08/28 23:08:48;;;;;;;42.95;16.42;;;18.30;99.90;;;;;;9543603;31;20040;-79
2022/08/28 23:13:48;;;;;;;32.38;14.77;;;18.30;99.90;;;;;;9542517;31;20075;-79
2022/08/28 23:18:50;;;;;;;36.42;15.32;;;18.20;99.90;;;;;;9532831;31;20047;-80
2022/08/28 23:23:50;;;;;;;31.80;15.10;;;18.20;99.90;;;;;;9532531;31;20060;-79
2022/08/28 23:28:51;;;;;;;35.25;15.65;;;18.10;99.90;;;;;;9546868;31;20394;-80
2022/08/28 23:33:52;;;;;;;35.47;15.18;;;18.20;99.90;;;;;;9540414;31;20142;-80
2022/08/28 23:38:52;;;;;;;37.78;16.67;;;18.10;99.90;;;;;;9555596;31;20055;-79
2022/08/28 23:43:53;;;;;;;39.75;18.38;;;18.10;99.90;;;;;;9543636;31;20560;-79
2022/08/28 23:48:54;;;;;;;38.42;19.35;;;18.10;99.90;;;;;;9536276;31;20040;-80
2022/08/28 23:53:54;;;;;;;46.20;20.45;;;18.00;99.90;;;;;;9528827;31;20069;-80
2022/08/28 23:58:55;;;;;;;37.58;18.85;;;18.10;99.90;;;;;;9533388;31;20437;-80
